Time;durP1;ratioP1;P1;durP2;ratioP2;P2;SDS_P1;SDS_P2;PMS_P1;PMS_P2;Temp;Humidity;BMP_temperature;BMP_pressure;BME280_temperature;BME280_humidity;BME280_pressure;Samples;Min_cycle;Max_cycle;Signal;HPM_P1;HPM_P2
2022/11/04 00:01:20;;;;;;;2.10;1.90;;;13.40;99.90;;;;;;4898051;29;20515;-75
2022/11/04 00:03:46;;;;;;;2.70;1.93;;;13.40;99.90;;;;;;4897935;29;20259;-76
2022/11/04 00:06:11;;;;;;;1.70;1.43;;;13.40;99.90;;;;;;4898055;29;20740;-76
2022/11/04 00:08:37;;;;;;;1.33;1.20;;;13.40;99.90;;;;;;4897673;29;20181;-76
2022/11/04 00:13:47;;;;;;;2.37;1.33;;;13.40;99.90;;;;;;4898173;29;20183;-76
2022/11/04 00:18:59;;;;;;;3.23;1.47;;;13.50;99.90;;;;;;4897921;29;20184;-77
2022/11/04 00:30:03;;;;;;;1.63;1.43;;;13.30;99.90;;;;;;4821953;29;20439;-76
2022/11/04 00:35:15;;;;;;;1.53;1.30;;;13.10;99.90;;;;;;4897874;29;20484;-75
2022/11/04 00:37:43;;;;;;;2.33;1.33;;;13.20;99.90;;;;;;4897259;29;20496;-76
2022/11/04 00:40:10;;;;;;;1.60;1.10;;;13.20;99.90;;;;;;4897276;29;20508;-76
2022/11/04 00:42:36;;;;;;;1.87;1.70;;;13.20;99.90;;;;;;4897314;29;20865;-75
2022/11/04 00:45:02;;;;;;;2.60;1.40;;;13.20;99.90;;;;;;4897245;29;20512;-75
2022/11/04 00:47:28;;;;;;;2.27;1.47;;;13.20;99.90;;;;;;4897655;29;20223;-75
2022/11/04 00:49:54;;;;;;;1.80;1.40;;;13.20;99.90;;;;;;4897286;29;20468;-75
2022/11/04 00:52:19;;;;;;;3.77;1.83;;;13.10;99.90;;;;;;4897089;29;20184;-75
2022/11/04 00:54:45;;;;;;;3.50;1.47;;;13.00;99.90;;;;;;4896351;29;20185;-76
2022/11/04 00:57:12;;;;;;;1.30;1.20;;;12.90;99.90;;;;;;4897212;29;20192;-76
2022/11/04 00:59:38;;;;;;;1.30;1.20;;;12.90;99.90;;;;;;4897010;29;20232;-74
2022/11/04 01:02:04;;;;;;;1.80;1.47;;;12.90;99.90;;;;;;4897079;29;20492;-73
2022/11/04 01:04:30;;;;;;;1.97;1.30;;;12.90;99.90;;;;;;4897010;29;20583;-73
2022/11/04 01:06:56;;;;;;;3.30;1.60;;;12.90;99.90;;;;;;4896864;29;20437;-75
2022/11/04 01:09:21;;;;;;;2.00;1.63;;;12.90;99.90;;;;;;4897230;29;20184;-74
2022/11/04 01:11:47;;;;;;;2.00;1.47;;;12.90;99.90;;;;;;4897041;29;20263;-77
2022/11/04 01:14:13;;;;;;;2.10;1.37;;;12.90;99.90;;;;;;4897014;29;20554;-77
2022/11/04 01:16:39;;;;;;;1.67;1.57;;;12.90;99.90;;;;;;4897176;29;20188;-77
2022/11/04 01:19:05;;;;;;;2.57;1.40;;;12.90;99.90;;;;;;4897429;29;20436;-76
2022/11/04 01:21:31;;;;;;;7.30;2.20;;;13.00;99.90;;;;;;4897696;29;20177;-75
2022/11/04 01:23:58;;;;;;;2.00;1.47;;;13.00;99.90;;;;;;4897249;29;20464;-75
2022/11/04 01:26:25;;;;;;;3.97;1.60;;;12.90;99.90;;;;;;4897409;29;20192;-75
2022/11/04 01:28:53;;;;;;;2.03;1.83;;;12.90;99.90;;;;;;4879796;29;20960;-75
2022/11/04 01:31:21;;;;;;;3.20;2.07;;;12.90;99.90;;;;;;4898028;29;20480;-75
2022/11/04 05:32:02;;;;;;;4.90;1.80;;;11.60;99.90;;;;;;5191682;23;20893;-76
2022/11/04 05:34:28;;;;;;;14.70;2.30;;;11.60;99.90;;;;;;4917264;29;20428;-78
2022/11/04 05:36:53;;;;;;;10.23;2.03;;;11.60;99.90;;;;;;4918962;29;20176;-82
2022/11/04 05:39:19;;;;;;;7.23;1.90;;;11.60;99.90;;;;;;4917606;29;20204;-80
2022/11/04 05:41:45;;;;;;;3.23;1.80;;;11.60;99.90;;;;;;4919625;29;20687;-76
2022/11/04 05:44:10;;;;;;;3.30;1.97;;;11.60;99.90;;;;;;4919813;29;20217;-79
2022/11/04 05:46:36;;;;;;;10.10;1.63;;;11.50;99.90;;;;;;4921566;29;20173;-77
2022/11/04 05:49:01;;;;;;;8.97;2.60;;;11.40;99.90;;;;;;4905443;29;20235;-83
2022/11/04 05:51:28;;;;;;;6.90;2.33;;;11.40;99.90;;;;;;4921215;29;20188;-76
2022/11/04 05:53:53;;;;;;;6.97;1.90;;;11.40;99.90;;;;;;4921462;29;20191;-81
2022/11/04 05:56:19;;;;;;;4.90;3.00;;;11.40;99.90;;;;;;4921231;29;21000;-80
2022/11/04 05:58:44;;;;;;;19.00;3.73;;;11.40;99.90;;;;;;4919668;29;20234;-78
2022/11/04 06:01:34;;;;;;;5.83;2.10;;;11.40;99.90;;;;;;4920016;29;20548;-77
2022/11/04 06:04:02;;;;;;;5.00;2.00;;;11.40;99.90;;;;;;4915737;29;20220;-79
2022/11/04 06:06:30;;;;;;;10.83;2.50;;;11.40;99.90;;;;;;4921167;29;20458;-86
2022/11/04 06:08:56;;;;;;;7.60;2.30;;;11.40;99.90;;;;;;4921522;29;20427;-87
2022/11/04 06:11:23;;;;;;;6.93;2.63;;;11.50;99.90;;;;;;4924551;29;20436;-86
2022/11/04 06:13:49;;;;;;;2.77;2.27;;;11.50;99.90;;;;;;4927546;29;20423;-86
2022/11/04 06:16:15;;;;;;;2.57;2.10;;;11.40;99.90;;;;;;4910367;29;20531;-85
2022/11/04 06:18:40;;;;;;;10.43;2.20;;;11.50;99.90;;;;;;4923423;29;20471;-86
2022/11/04 06:21:10;;;;;;;12.27;2.80;;;11.50;99.90;;;;;;4922570;29;20919;-85
2022/11/04 06:23:35;;;;;;;5.90;1.57;;;11.60;99.90;;;;;;4920262;29;20188;-85
2022/11/04 06:26:01;;;;;;;4.47;1.83;;;11.70;99.90;;;;;;4920725;29;20442;-86
2022/11/04 06:28:26;;;;;;;10.90;3.07;;;11.60;99.90;;;;;;4921766;29;20191;-86
2022/11/04 06:30:52;;;;;;;5.57;2.60;;;11.60;99.90;;;;;;4921597;29;20246;-85
2022/11/04 06:33:17;;;;;;;4.63;2.30;;;11.60;99.90;;;;;;4920346;29;20647;-85
2022/11/04 06:35:45;;;;;;;7.47;2.53;;;11.60;99.90;;;;;;4920446;29;20199;-85
2022/11/04 06:38:10;;;;;;;4.10;2.33;;;11.60;99.90;;;;;;4919507;29;20183;-85
2022/11/04 06:40:36;;;;;;;4.67;1.90;;;11.60;99.90;;;;;;4920200;29;20511;-84
2022/11/04 06:43:02;;;;;;;4.80;2.63;;;11.60;99.90;;;;;;4919933;29;20172;-85
2022/11/04 06:45:27;;;;;;;4.70;1.80;;;11.50;99.90;;;;;;4918466;29;20259;-86
2022/11/04 06:47:53;;;;;;;4.90;2.40;;;11.50;99.90;;;;;;4918787;29;20175;-84
2022/11/04 06:50:18;;;;;;;6.47;2.07;;;11.50;99.90;;;;;;4918818;29;20207;-85
2022/11/04 06:52:44;;;;;;;9.60;2.77;;;11.50;99.90;;;;;;4917782;29;20203;-83
2022/11/04 06:55:10;;;;;;;6.60;3.30;;;11.50;99.90;;;;;;4919093;29;20176;-83
2022/11/04 06:57:35;;;;;;;4.63;2.50;;;11.50;99.90;;;;;;4918792;29;20447;-83
2022/11/04 07:00:01;;;;;;;6.63;2.33;;;11.50;99.90;;;;;;4918813;29;20511;-84
2022/11/04 07:02:26;;;;;;;11.03;3.20;;;11.50;99.90;;;;;;4919023;29;20305;-85
2022/11/04 07:04:52;;;;;;;7.17;2.60;;;11.60;99.90;;;;;;4920648;29;20220;-84
2022/11/04 07:07:17;;;;;;;4.40;2.40;;;11.60;99.90;;;;;;4904615;29;20183;-84
2022/11/04 07:09:43;;;;;;;8.43;2.17;;;11.60;99.90;;;;;;4925129;29;20275;-84
2022/11/04 07:12:08;;;;;;;8.83;2.40;;;11.60;99.90;;;;;;4922470;29;20259;-84
2022/11/04 07:14:34;;;;;;;21.50;2.80;;;11.60;99.90;;;;;;4918840;29;20187;-84
2022/11/04 07:17:00;;;;;;;2.80;1.57;;;11.60;99.90;;;;;;4918939;29;20648;-85
2022/11/04 07:19:26;;;;;;;5.33;2.47;;;11.60;99.90;;;;;;4918636;29;20191;-85
2022/11/04 07:21:51;;;;;;;5.30;1.90;;;11.60;99.90;;;;;;4918685;29;20412;-85
2022/11/04 07:24:17;;;;;;;3.40;2.10;;;11.60;99.90;;;;;;4918659;29;20204;-83
2022/11/04 07:26:43;;;;;;;2.90;1.63;;;11.60;99.90;;;;;;4918546;29;20183;-83
2022/11/04 07:29:10;;;;;;;9.47;2.63;;;11.60;99.90;;;;;;4918580;29;20521;-83
2022/11/04 07:31:36;;;;;;;6.67;2.70;;;11.60;99.90;;;;;;4918348;29;20240;-83
2022/11/04 07:34:02;;;;;;;8.47;2.27;;;11.70;99.90;;;;;;4918388;29;20436;-83
2022/11/04 07:36:28;;;;;;;4.63;2.37;;;11.70;99.90;;;;;;4918401;29;20455;-83
2022/11/04 07:38:54;;;;;;;8.33;2.50;;;11.70;99.90;;;;;;4918298;29;20471;-83
2022/11/04 07:41:20;;;;;;;16.30;3.57;;;11.60;99.90;;;;;;4918342;29;20841;-83
2022/11/04 07:43:50;;;;;;;8.60;2.77;;;11.70;99.90;;;;;;4918314;29;20223;-84
2022/11/04 07:46:16;;;;;;;7.40;3.97;;;11.70;99.90;;;;;;4918075;29;20459;-85
2022/11/04 07:48:42;;;;;;;6.60;2.77;;;11.70;99.90;;;;;;4918021;29;20440;-85
2022/11/04 07:51:11;;;;;;;4.07;2.27;;;11.70;99.90;;;;;;4901168;29;20448;-85
2022/11/04 07:53:36;;;;;;;5.13;2.63;;;11.90;99.90;;;;;;4918005;29;20586;-83
2022/11/04 07:56:07;;;;;;;3.70;2.73;;;11.90;99.90;;;;;;4917971;29;20427;-84
2022/11/04 07:58:33;;;;;;;4.23;2.10;;;12.00;99.90;;;;;;4917796;29;20183;-84
2022/11/04 08:01:01;;;;;;;9.53;2.30;;;12.00;99.90;;;;;;4917995;29;20443;-84
2022/11/04 08:03:26;;;;;;;5.37;2.77;;;11.90;99.90;;;;;;4917275;29;20792;-82
2022/11/04 08:05:56;;;;;;;6.53;3.13;;;11.90;99.90;;;;;;4917724;29;20451;-85
2022/11/04 08:08:21;;;;;;;3.90;2.30;;;11.90;99.90;;;;;;4917894;29;20179;-85
2022/11/04 08:11:02;;;;;;;4.57;2.50;;;12.00;99.90;;;;;;4917831;29;20447;-85
2022/11/04 08:13:28;;;;;;;12.43;2.70;;;11.90;99.90;;;;;;4917814;29;20175;-86
2022/11/04 08:15:54;;;;;;;7.93;2.80;;;12.00;99.90;;;;;;4917589;29;20476;-84
2022/11/04 08:18:19;;;;;;;5.73;2.80;;;12.00;99.90;;;;;;4917668;29;20511;-84
2022/11/04 08:20:50;;;;;;;4.50;2.73;;;12.10;99.90;;;;;;4917388;29;20184;-83
2022/11/04 08:23:16;;;;;;;6.67;2.73;;;12.10;99.90;;;;;;4917556;29;20172;-82
2022/11/04 08:25:42;;;;;;;5.90;2.67;;;12.20;99.90;;;;;;4917467;29;20510;-85
2022/11/04 08:28:09;;;;;;;11.77;2.57;;;12.30;99.90;;;;;;4917339;29;20935;-85
2022/11/04 08:30:35;;;;;;;4.20;2.43;;;12.40;99.90;;;;;;4917290;29;20707;-85
2022/11/04 08:33:00;;;;;;;6.80;2.70;;;12.40;99.90;;;;;;4917528;29;20427;-85
2022/11/04 08:35:26;;;;;;;7.17;2.57;;;12.40;99.90;;;;;;4917508;29;20176;-86
2022/11/04 08:37:51;;;;;;;10.50;2.90;;;12.40;99.90;;;;;;4917287;29;20183;-85
2022/11/04 08:40:17;;;;;;;11.13;2.87;;;12.50;99.90;;;;;;4917271;29;20180;-85
2022/11/04 08:42:42;;;;;;;8.10;2.53;;;12.60;99.90;;;;;;4917419;29;20180;-86
2022/11/04 08:45:08;;;;;;;5.80;2.90;;;12.70;99.90;;;;;;4917303;29;20227;-87
2022/11/04 08:47:33;;;;;;;7.03;2.33;;;12.90;99.90;;;;;;4917219;29;20236;-86
2022/11/04 08:49:59;;;;;;;5.27;2.30;;;12.90;99.90;;;;;;4900295;29;20275;-84
2022/11/04 08:52:24;;;;;;;10.40;2.00;;;13.00;99.90;;;;;;4917417;29;20267;-84
2022/11/04 08:54:53;;;;;;;7.30;2.20;;;13.10;99.90;;;;;;4917038;29;20184;-84
2022/11/04 08:57:19;;;;;;;6.10;1.90;;;13.20;99.90;;;;;;4917143;29;20184;-84
2022/11/04 08:59:44;;;;;;;4.83;2.60;;;13.20;99.90;;;;;;4917080;29;20439;-84
2022/11/04 09:02:14;;;;;;;6.27;2.00;;;13.20;99.90;;;;;;4917460;29;20184;-84
2022/11/04 09:04:40;;;;;;;5.47;1.80;;;13.20;99.90;;;;;;4917580;29;20301;-85
2022/11/04 09:07:06;;;;;;;6.70;2.17;;;13.30;99.90;;;;;;4917118;29;20907;-84
2022/11/04 09:09:32;;;;;;;9.70;2.10;;;13.30;99.90;;;;;;4900086;29;20207;-85
2022/11/04 09:11:58;;;;;;;6.80;1.63;;;13.40;99.90;;;;;;4916972;29;20523;-84
2022/11/04 09:14:23;;;;;;;6.13;2.50;;;13.50;99.90;;;;;;4916955;29;20443;-85
2022/11/04 09:16:49;;;;;;;5.27;2.40;;;13.70;99.90;;;;;;4920617;29;20179;-85
2022/11/04 09:19:14;;;;;;;4.17;1.83;;;13.70;99.90;;;;;;4903817;29;20215;-83
2022/11/04 09:21:40;;;;;;;4.23;1.80;;;13.80;99.90;;;;;;4920887;29;20262;-84
2022/11/04 09:24:07;;;;;;;3.40;2.17;;;14.00;99.90;;;;;;4921041;29;20207;-84
2022/11/04 09:26:33;;;;;;;5.77;2.57;;;14.20;99.90;;;;;;4920967;29;20186;-85
2022/11/04 09:28:59;;;;;;;9.23;3.10;;;14.30;99.90;;;;;;4921589;29;20451;-86
2022/11/04 09:31:27;;;;;;;7.60;1.73;;;14.40;99.90;;;;;;4920651;29;20471;-86
2022/11/04 09:33:54;;;;;;;10.20;2.17;;;14.50;99.90;;;;;;4920686;29;20431;-85
2022/11/04 09:36:20;;;;;;;5.83;2.03;;;14.50;99.90;;;;;;4920967;29;20423;-86
2022/11/04 09:38:45;;;;;;;6.30;2.07;;;14.30;99.90;;;;;;4904081;29;20431;-86
2022/11/04 09:41:36;;;;;;;7.83;1.80;;;14.30;99.90;;;;;;4921196;29;20184;-86
2022/11/04 09:44:42;;;;;;;4.37;2.20;;;14.30;99.90;;;;;;4920955;29;20639;-86
2022/11/04 09:47:09;;;;;;;3.90;2.13;;;14.30;99.90;;;;;;4920840;29;20439;-84
2022/11/04 09:49:38;;;;;;;8.73;2.17;;;14.30;99.90;;;;;;4920561;29;20476;-84
2022/11/04 09:52:23;;;;;;;8.37;2.33;;;14.30;99.90;;;;;;4920741;29;20435;-84
2022/11/04 09:55:11;;;;;;;7.93;4.97;;;14.10;99.90;;;;;;4920535;29;20436;-84
2022/11/04 09:57:36;;;;;;;13.63;2.00;;;14.10;99.90;;;;;;4920130;29;20435;-83
2022/11/04 10:00:03;;;;;;;3.90;1.50;;;14.00;99.90;;;;;;4920263;29;20428;-83
2022/11/04 10:03:01;;;;;;;5.03;2.10;;;13.90;99.90;;;;;;4919994;29;20546;-82
2022/11/04 10:06:06;;;;;;;10.70;2.30;;;14.00;99.90;;;;;;4877985;29;21010;-82
2022/11/04 10:09:16;;;;;;;3.40;1.50;;;14.00;99.90;;;;;;4891050;29;20424;-82
2022/11/04 10:12:00;;;;;;;8.40;1.50;;;14.10;99.90;;;;;;4861930;29;20795;-82
2022/11/04 10:14:40;;;;;;;2.97;1.63;;;14.20;99.90;;;;;;4919787;29;20498;-81
2022/11/04 10:17:12;;;;;;;2.50;1.73;;;14.40;99.90;;;;;;4919909;29;20420;-82
2022/11/04 10:19:50;;;;;;;6.20;2.10;;;14.50;99.90;;;;;;4919811;29;20459;-80
2022/11/04 10:22:32;;;;;;;5.13;2.17;;;14.60;99.90;;;;;;4919625;29;20975;-80
2022/11/04 10:25:04;;;;;;;4.27;1.60;;;14.50;99.90;;;;;;4919562;29;20911;-80
2022/11/04 10:27:35;;;;;;;6.90;2.33;;;14.60;99.90;;;;;;4919158;29;20427;-79
2022/11/04 10:30:22;;;;;;;3.23;1.83;;;14.70;99.90;;;;;;4919546;29;20439;-79
2022/11/04 10:32:52;;;;;;;7.73;2.20;;;14.90;99.90;;;;;;4919498;29;20450;-80
2022/11/04 10:35:23;;;;;;;4.67;2.10;;;14.90;99.90;;;;;;4919696;29;20420;-80
2022/11/04 10:37:52;;;;;;;7.13;1.97;;;14.90;99.90;;;;;;4919561;29;20439;-79
2022/11/04 10:40:24;;;;;;;5.47;2.27;;;14.90;99.90;;;;;;4920181;29;20815;-80
2022/11/04 10:42:50;;;;;;;3.10;1.90;;;15.00;99.90;;;;;;4919635;29;20477;-80
2022/11/04 10:45:19;;;;;;;8.00;2.40;;;15.00;99.90;;;;;;4919202;29;20475;-79
2022/11/04 10:48:02;;;;;;;4.03;2.17;;;15.00;99.90;;;;;;4920058;29;20486;-84
2022/11/04 10:50:39;;;;;;;8.10;2.30;;;15.00;99.90;;;;;;4920470;29;20463;-84
2022/11/04 10:53:14;;;;;;;3.97;2.00;;;15.00;99.90;;;;;;4921768;29;20446;-84
2022/11/04 10:56:01;;;;;;;4.17;2.10;;;14.90;99.90;;;;;;4933794;29;20428;-84
2022/11/04 10:58:30;;;;;;;5.30;1.43;;;15.00;99.90;;;;;;4936000;29;20797;-84
2022/11/04 11:00:56;;;;;;;3.50;1.97;;;15.00;99.90;;;;;;4933861;29;20438;-84
2022/11/04 11:03:24;;;;;;;4.43;1.80;;;14.90;99.90;;;;;;4919004;29;20432;-84
2022/11/04 11:05:51;;;;;;;5.90;2.27;;;14.90;99.90;;;;;;4919920;29;20479;-84
2022/11/04 11:08:29;;;;;;;3.83;1.93;;;14.90;99.90;;;;;;4921548;29;20439;-85
2022/11/04 11:10:55;;;;;;;4.50;2.47;;;14.90;99.90;;;;;;4918994;29;20765;-84
2022/11/04 11:13:27;;;;;;;7.70;2.53;;;14.90;99.90;;;;;;4919595;29;20428;-86
2022/11/04 11:16:24;;;;;;;3.67;2.23;;;14.90;99.90;;;;;;4919457;29;20530;-86
2022/11/04 11:19:16;;;;;;;11.27;3.00;;;14.80;99.90;;;;;;4912511;29;20519;-86
2022/11/04 11:21:48;;;;;;;4.07;1.97;;;14.80;99.90;;;;;;4919985;29;20771;-82
2022/11/04 11:24:22;;;;;;;6.07;1.67;;;14.80;99.90;;;;;;4920012;29;20479;-85
2022/11/04 11:26:59;;;;;;;9.50;2.10;;;14.80;99.90;;;;;;4919941;29;20459;-83
2022/11/04 11:29:29;;;;;;;3.93;1.80;;;14.80;99.90;;;;;;4921521;29;20428;-85
2022/11/04 11:31:57;;;;;;;6.70;1.80;;;14.80;99.90;;;;;;4921048;29;20483;-84
2022/11/04 11:34:37;;;;;;;4.30;2.10;;;14.80;99.90;;;;;;4925285;29;20800;-84
2022/11/04 11:37:04;;;;;;;5.30;2.40;;;14.70;99.90;;;;;;4924693;29;20797;-85
2022/11/04 11:39:32;;;;;;;6.07;2.07;;;14.70;99.90;;;;;;4923177;29;20435;-85
2022/11/04 11:42:03;;;;;;;6.20;1.50;;;14.70;99.90;;;;;;4919043;29;20499;-85
2022/11/04 11:44:35;;;;;;;5.57;2.00;;;14.80;99.90;;;;;;4918673;29;20467;-85
2022/11/04 11:47:16;;;;;;;9.23;2.20;;;14.70;99.90;;;;;;4919081;29;20576;-85
2022/11/04 11:49:41;;;;;;;5.23;1.90;;;14.60;99.90;;;;;;4919751;29;20432;-84
2022/11/04 11:52:30;;;;;;;4.87;1.83;;;14.60;99.90;;;;;;4919845;29;20535;-82
2022/11/04 11:55:16;;;;;;;4.37;1.90;;;14.50;99.90;;;;;;4918725;29;20199;-83
2022/11/04 11:58:00;;;;;;;4.90;1.90;;;14.50;99.90;;;;;;4920035;29;20439;-86
2022/11/04 12:00:31;;;;;;;5.50;1.67;;;14.50;99.90;;;;;;4918456;29;20424;-88
2022/11/04 12:03:16;;;;;;;7.47;2.43;;;14.50;99.90;;;;;;4906854;29;20495;-81
2022/11/04 12:05:53;;;;;;;10.17;2.00;;;14.50;99.90;;;;;;4917767;29;20479;-81
2022/11/04 12:08:39;;;;;;;7.97;1.90;;;14.50;99.90;;;;;;4917908;29;20792;-81
2022/11/04 12:11:19;;;;;;;8.77;2.07;;;14.40;99.90;;;;;;4917807;29;20438;-80
2022/11/04 12:14:02;;;;;;;6.27;2.17;;;14.40;99.90;;;;;;4917864;29;20420;-81
2022/11/04 12:17:00;;;;;;;6.40;1.90;;;14.30;99.90;;;;;;4917612;29;20518;-81
2022/11/04 12:19:50;;;;;;;3.77;1.87;;;14.30;99.90;;;;;;4917678;29;20471;-83
2022/11/04 12:22:42;;;;;;;8.67;2.27;;;14.30;99.90;;;;;;4918827;29;20427;-86
2022/11/04 12:25:51;;;;;;;6.90;2.00;;;14.30;99.90;;;;;;4923325;29;20514;-83
2022/11/04 12:28:52;;;;;;;9.63;2.20;;;14.30;99.90;;;;;;4868495;29;20527;-82
2022/11/04 12:31:30;;;;;;;2.63;1.80;;;14.30;99.90;;;;;;4917164;29;20479;-87
2022/11/04 12:34:23;;;;;;;6.53;1.67;;;14.30;99.90;;;;;;4917651;29;20491;-88
2022/11/04 12:37:13;;;;;;;4.83;1.93;;;14.30;99.90;;;;;;4917555;29;20935;-86
2022/11/04 12:40:10;;;;;;;6.03;1.83;;;14.30;99.90;;;;;;4917251;29;20431;-79
2022/11/04 12:43:13;;;;;;;4.13;1.70;;;14.30;99.90;;;;;;4917293;29;20874;-81
2022/11/04 12:45:59;;;;;;;4.70;1.97;;;14.30;99.90;;;;;;4917067;29;20487;-80
2022/11/04 12:49:02;;;;;;;4.73;1.70;;;14.30;99.90;;;;;;4900171;29;20432;-81
2022/11/04 12:51:43;;;;;;;4.83;2.03;;;14.30;99.90;;;;;;4906542;29;20444;-78
2022/11/04 12:54:20;;;;;;;7.23;2.40;;;14.30;99.90;;;;;;4917209;29;20788;-74
2022/11/04 12:56:56;;;;;;;4.33;2.20;;;14.30;99.90;;;;;;4917017;29;20535;-75
2022/11/04 12:59:47;;;;;;;6.77;2.30;;;14.30;99.90;;;;;;4916843;29;20467;-76
2022/11/04 13:02:22;;;;;;;11.13;2.33;;;14.30;99.90;;;;;;4917063;29;20885;-76
2022/11/04 13:05:12;;;;;;;9.23;2.03;;;14.30;99.90;;;;;;4916651;29;20486;-76
2022/11/04 13:07:53;;;;;;;9.33;2.50;;;14.30;99.90;;;;;;4915718;29;20462;-73
2022/11/04 13:10:32;;;;;;;4.13;1.93;;;14.30;99.90;;;;;;4916034;29;20419;-77
2022/11/04 13:13:01;;;;;;;5.23;2.10;;;14.30;99.90;;;;;;4915799;29;20444;-75
2022/11/04 13:15:32;;;;;;;5.93;3.30;;;14.40;99.90;;;;;;4915610;29;20439;-73
2022/11/04 13:18:03;;;;;;;7.00;2.70;;;14.30;99.90;;;;;;4887226;29;20448;-74
2022/11/04 13:20:42;;;;;;;8.37;2.27;;;14.40;99.90;;;;;;4901826;29;20441;-74
2022/11/04 13:23:38;;;;;;;5.27;2.20;;;14.40;99.90;;;;;;4915343;29;20858;-72
2022/11/04 13:26:09;;;;;;;8.53;3.37;;;14.30;99.90;;;;;;4902455;29;20453;-74
2022/11/04 13:28:39;;;;;;;7.77;2.27;;;14.30;99.90;;;;;;4904892;29;20435;-74
2022/11/04 13:31:30;;;;;;;6.47;2.57;;;14.30;99.90;;;;;;4906213;29;20464;-74
2022/11/04 13:34:14;;;;;;;5.60;2.73;;;14.30;99.90;;;;;;4886665;29;20501;-74
2022/11/04 13:36:50;;;;;;;4.00;2.47;;;14.30;99.90;;;;;;4913568;29;20447;-75
2022/11/04 13:39:45;;;;;;;7.53;3.20;;;14.40;99.90;;;;;;4915185;29;20939;-74
2022/11/04 13:42:46;;;;;;;5.23;3.63;;;14.30;99.90;;;;;;4895173;29;20452;-77
2022/11/04 13:45:15;;;;;;;15.43;4.00;;;14.30;99.90;;;;;;4896685;29;20487;-83
2022/11/04 13:47:51;;;;;;;12.13;3.13;;;14.30;99.90;;;;;;4897147;29;20476;-76
2022/11/04 13:50:34;;;;;;;6.97;4.27;;;14.40;99.90;;;;;;4896809;29;20508;-85
2022/11/04 13:53:00;;;;;;;6.30;4.30;;;14.30;99.90;;;;;;4897017;29;20432;-80
2022/11/04 13:55:26;;;;;;;9.43;5.93;;;14.30;99.90;;;;;;4880006;29;20788;-84
2022/11/04 13:57:54;;;;;;;9.37;4.10;;;14.30;99.90;;;;;;4896810;29;20432;-86
2022/11/04 14:00:24;;;;;;;12.90;4.70;;;14.30;99.90;;;;;;4896656;29;20181;-87
2022/11/04 14:02:52;;;;;;;11.60;5.00;;;14.30;99.90;;;;;;4882965;29;20956;-87
2022/11/04 14:05:27;;;;;;;15.30;5.50;;;14.30;99.90;;;;;;4900444;29;20483;-83
2022/11/04 14:08:01;;;;;;;13.10;5.20;;;14.30;99.90;;;;;;4900339;29;20456;-81
2022/11/04 14:10:48;;;;;;;12.80;4.90;;;14.20;99.90;;;;;;4910182;29;20444;-87
2022/11/04 14:13:36;;;;;;;15.70;5.40;;;14.20;99.90;;;;;;4918034;29;20516;-82
2022/11/04 14:16:08;;;;;;;10.07;5.73;;;14.20;99.90;;;;;;4911151;29;20431;-85
2022/11/04 14:18:43;;;;;;;10.80;6.33;;;14.20;99.90;;;;;;4916915;29;20432;-77
2022/11/04 14:21:15;;;;;;;10.13;5.40;;;14.20;99.90;;;;;;4918838;29;20427;-81
2022/11/04 14:23:48;;;;;;;14.83;6.50;;;14.20;99.90;;;;;;4918899;29;20439;-82
2022/11/04 14:26:16;;;;;;;12.93;5.93;;;14.20;99.90;;;;;;4918717;29;20432;-79
2022/11/04 14:28:45;;;;;;;9.53;5.80;;;14.20;99.90;;;;;;4918698;29;20583;-79
2022/11/04 14:31:35;;;;;;;11.50;5.57;;;14.20;99.90;;;;;;4901445;29;20475;-80
2022/11/04 14:34:01;;;;;;;9.90;5.47;;;14.20;99.90;;;;;;4918584;29;20488;-78
2022/11/04 14:36:29;;;;;;;21.00;6.23;;;14.20;99.90;;;;;;4918576;29;20788;-80
2022/11/04 14:39:03;;;;;;;9.10;4.93;;;14.20;99.90;;;;;;4918411;29;20780;-80
2022/11/04 14:41:39;;;;;;;11.83;5.87;;;14.10;99.90;;;;;;4918320;29;20470;-81
2022/11/04 14:44:20;;;;;;;9.17;5.03;;;14.10;99.90;;;;;;4918480;29;20459;-82
2022/11/04 14:46:50;;;;;;;8.83;4.90;;;14.10;99.90;;;;;;4918462;29;20443;-82
2022/11/04 14:49:39;;;;;;;10.07;4.73;;;14.10;99.90;;;;;;4918580;29;20943;-83
2022/11/04 14:52:21;;;;;;;7.67;4.63;;;14.10;99.90;;;;;;4918510;29;20432;-83
2022/11/04 14:54:48;;;;;;;7.73;4.30;;;14.10;99.90;;;;;;4918383;29;20824;-84
2022/11/04 14:57:19;;;;;;;6.63;4.40;;;14.10;99.90;;;;;;4918268;29;20795;-82
2022/11/04 14:59:45;;;;;;;11.70;4.87;;;14.10;99.90;;;;;;4918264;29;20428;-80
2022/11/04 15:02:22;;;;;;;9.23;5.07;;;14.10;99.90;;;;;;4901234;29;20436;-79
2022/11/04 15:04:58;;;;;;;13.03;4.23;;;14.10;99.90;;;;;;4917878;29;20511;-77
2022/11/04 15:07:32;;;;;;;12.47;5.40;;;14.00;99.90;;;;;;4918427;29;20720;-87
2022/11/04 15:09:57;;;;;;;12.67;5.53;;;14.10;99.90;;;;;;4918563;29;20930;-76
2022/11/04 15:15:40;;;;;;;13.47;4.87;;;14.00;99.90;;;;;;4918036;29;20654;-84
2022/11/04 15:18:12;;;;;;;11.60;4.70;;;14.00;99.90;;;;;;4917574;29;20456;-77
2022/11/04 15:20:48;;;;;;;9.13;4.50;;;14.00;99.90;;;;;;4915230;29;20763;-83
2022/11/04 15:23:17;;;;;;;12.83;5.20;;;14.00;99.90;;;;;;4914983;29;20515;-81
2022/11/04 15:25:47;;;;;;;13.63;5.50;;;14.00;99.90;;;;;;4917388;29;20847;-83
2022/11/04 15:28:19;;;;;;;10.40;5.10;;;14.00;99.90;;;;;;4912646;29;20439;-82
2022/11/04 15:30:58;;;;;;;10.90;4.50;;;13.90;99.90;;;;;;4916044;29;20480;-83
2022/11/04 15:33:24;;;;;;;8.93;5.07;;;13.90;99.90;;;;;;4917367;29;20447;-86
2022/11/04 15:35:51;;;;;;;8.50;4.67;;;13.90;99.90;;;;;;4917690;29;20792;-84
2022/11/04 15:38:17;;;;;;;10.43;5.07;;;13.90;99.90;;;;;;4917462;29;20428;-87
2022/11/04 15:40:44;;;;;;;7.87;4.60;;;13.90;99.90;;;;;;4917553;29;20494;-82
2022/11/04 15:43:10;;;;;;;12.13;5.73;;;13.80;99.90;;;;;;4917467;29;20195;-83
2022/11/04 15:45:38;;;;;;;9.23;5.00;;;13.80;99.90;;;;;;4917436;29;20559;-83
2022/11/04 15:48:33;;;;;;;11.40;5.13;;;13.80;99.90;;;;;;4917349;29;20427;-84
2022/11/04 15:51:17;;;;;;;8.47;5.40;;;13.80;99.90;;;;;;4917601;29;20432;-87
2022/11/04 15:53:53;;;;;;;7.43;4.60;;;13.70;99.90;;;;;;4917707;29;20580;-88
2022/11/04 15:56:22;;;;;;;10.40;4.83;;;13.70;99.90;;;;;;4917498;29;20432;-84
2022/11/04 15:58:48;;;;;;;15.80;6.13;;;13.70;99.90;;;;;;4917103;29;20432;-87
2022/11/04 16:01:15;;;;;;;15.13;6.63;;;13.70;99.90;;;;;;4917195;29;20491;-87
2022/11/04 16:03:49;;;;;;;10.17;6.00;;;13.70;99.90;;;;;;4917229;29;20436;-85
2022/11/04 16:06:14;;;;;;;9.87;5.53;;;13.60;99.90;;;;;;4917161;29;20572;-83
2022/11/04 16:08:40;;;;;;;9.00;5.67;;;13.60;99.90;;;;;;4912114;29;20518;-77
2022/11/04 16:11:19;;;;;;;11.63;6.10;;;13.60;99.90;;;;;;4905517;29;20639;-77
2022/11/04 16:13:45;;;;;;;9.30;6.17;;;13.60;99.90;;;;;;4914391;29;20246;-77
2022/11/04 16:16:18;;;;;;;20.30;7.10;;;13.60;99.90;;;;;;4916469;29;20542;-80
2022/11/04 16:18:57;;;;;;;11.30;5.60;;;13.60;99.90;;;;;;4916190;29;20852;-82
2022/11/04 16:21:29;;;;;;;11.20;5.03;;;13.60;99.90;;;;;;4916266;29;20799;-80
2022/11/04 16:24:19;;;;;;;8.10;5.73;;;13.60;99.90;;;;;;4915553;29;20960;-78
2022/11/04 16:26:46;;;;;;;10.57;5.40;;;13.50;99.90;;;;;;4902282;29;20447;-74
2022/11/04 16:29:23;;;;;;;11.23;5.40;;;13.50;99.90;;;;;;4916045;29;20431;-77
2022/11/04 16:32:08;;;;;;;7.70;5.23;;;13.50;99.90;;;;;;4915754;29;20615;-77
2022/11/04 16:34:34;;;;;;;13.47;6.83;;;13.50;99.90;;;;;;4915706;29;20458;-82
2022/11/04 16:37:00;;;;;;;15.87;7.50;;;13.50;99.90;;;;;;4916058;29;20424;-73
2022/11/04 16:39:25;;;;;;;10.37;7.70;;;13.50;99.90;;;;;;4899063;29;20844;-76
2022/11/04 16:41:51;;;;;;;15.00;8.97;;;13.50;99.90;;;;;;4916122;29;20175;-75
2022/11/04 16:44:22;;;;;;;13.43;6.93;;;13.50;99.90;;;;;;4915865;29;20549;-81
2022/11/04 16:46:48;;;;;;;13.43;7.80;;;13.50;99.90;;;;;;4916244;29;20533;-92
2022/11/04 16:49:15;;;;;;;11.77;7.07;;;13.50;99.90;;;;;;4915935;29;20523;-83
2022/11/04 16:51:41;;;;;;;20.00;8.10;;;13.50;99.90;;;;;;4916423;29;20263;-88
2022/11/04 16:54:07;;;;;;;13.87;7.43;;;13.50;99.90;;;;;;4915933;29;20435;-76
2022/11/04 16:56:33;;;;;;;15.00;8.43;;;13.50;99.90;;;;;;4915557;29;20478;-79
2022/11/04 16:58:59;;;;;;;13.33;7.97;;;13.50;99.90;;;;;;4906743;29;20459;-82
2022/11/04 17:01:25;;;;;;;12.87;8.07;;;13.50;99.90;;;;;;4906646;29;20428;-79
2022/11/04 17:03:51;;;;;;;10.13;8.33;;;13.50;99.90;;;;;;4899982;29;20628;-73
2022/11/04 17:06:16;;;;;;;14.97;8.13;;;13.50;99.90;;;;;;4908091;29;20448;-77
2022/11/04 17:08:43;;;;;;;11.30;8.30;;;13.50;99.90;;;;;;4915617;29;20208;-83
2022/11/04 17:11:09;;;;;;;14.97;7.83;;;13.50;99.90;;;;;;4916075;29;20187;-85
2022/11/04 17:13:35;;;;;;;14.80;7.23;;;13.50;99.90;;;;;;4916253;29;20848;-78
2022/11/04 17:16:01;;;;;;;10.17;7.77;;;13.50;99.90;;;;;;4916530;29;20443;-82
2022/11/04 17:18:29;;;;;;;7.67;6.63;;;13.50;99.90;;;;;;4916072;29;20176;-76
2022/11/04 17:20:56;;;;;;;10.43;7.10;;;13.50;99.90;;;;;;4916964;29;20503;-78
2022/11/04 17:23:21;;;;;;;9.07;6.50;;;13.50;99.90;;;;;;4916242;29;20464;-88
2022/11/04 17:25:48;;;;;;;10.10;7.47;;;13.50;99.90;;;;;;4915578;29;20522;-84